»·PEaware :: ENY247 KLAS-KFAT

ENY247 :: KLAS-KFAT

FLIGHT INFORMATION

Flight Status: Arrived
Operator: Unknown
More flights by this operator :: More flights under this callsign
Pilot: Ben F. (13029)
Aircraft: EMBRAER ERJ-145
(E145)
More flights by this aircraft type
Origin: KLAS McCarran Intl
United States
Destination: KFAT Fresno Yosemite Intl
United States
More flights between these airports :: More routes between these airports
Route: SHEAD1 KENNO BIH FRA
File this flight plan on PilotEdge
Remarks: RMK / SIMBRIEF
Altitude:
(Current/Filed)
36,000ft
Speed:
(Current/Filed)
453kts
Departed: 13-Jun-19 10:13 AM
Arrived: 13-Jun-19 11:05 AM
Distance/Time
Traveled:
224nm/0:52
Distance/Time
To Go:
Arrived

Flight Plot

Page will automatically refresh every two minutes.

Flight plan parsing failed; only flown route is shown


Map Options




Map Legend


Flown Route
Filed Route
Departure Airport
Arrival Airport
Navaid (VOR, NDB)
Fix

Horizontal Profiles

Position Reports

Time Latitude Longitude Heading Altitude Ground
Speed
13-Jun-19 09:31 36.080622 -115.140642 134 2117ft 0kts
13-Jun-19 09:32 36.080622 -115.140642 134 2117ft 0kts
13-Jun-19 09:33 36.080622 -115.140642 134 2117ft 0kts
13-Jun-19 09:34 36.080622 -115.140642 134 2117ft 0kts
13-Jun-19 09:35 36.080622 -115.140642 134 2117ft 0kts
13-Jun-19 09:36 36.080622 -115.140642 134 2117ft 0kts
13-Jun-19 09:37 36.080622 -115.140642 134 2117ft 0kts
13-Jun-19 09:38 36.080622 -115.140642 134 2117ft 0kts
13-Jun-19 09:39 36.080622 -115.140642 134 2117ft 0kts
13-Jun-19 09:40 36.080622 -115.140642 134 2117ft 0kts
13-Jun-19 09:41 36.080622 -115.140642 134 2117ft 0kts
13-Jun-19 09:42 36.080622 -115.140642 134 2117ft 0kts
13-Jun-19 09:43 36.080622 -115.140642 134 2117ft 0kts
13-Jun-19 09:44 36.080622 -115.140642 134 2117ft 0kts
13-Jun-19 09:45 36.080622 -115.140642 134 2117ft 0kts
13-Jun-19 09:46 36.080622 -115.140642 134 2117ft 0kts
13-Jun-19 09:47 36.080622 -115.140642 134 2117ft 0kts
13-Jun-19 09:48 36.080622 -115.140642 134 2117ft 0kts
13-Jun-19 09:49 36.080622 -115.140642 134 2117ft 0kts
13-Jun-19 09:50 36.080622 -115.140642 134 2117ft 0kts
13-Jun-19 09:51 36.080622 -115.140642 134 2117ft 0kts
13-Jun-19 09:52 36.080619 -115.140639 134 2117ft 0kts
13-Jun-19 09:53 36.080950 -115.141018 164 2117ft 2kts
13-Jun-19 09:54 36.081173 -115.140942 223 2117ft 0kts
13-Jun-19 09:55 36.081173 -115.140942 223 2117ft 0kts
13-Jun-19 09:56 36.081173 -115.140942 223 2117ft 0kts
13-Jun-19 09:57 36.081173 -115.140942 223 2117ft 0kts
13-Jun-19 09:58 36.081173 -115.140942 223 2117ft 0kts
13-Jun-19 09:59 36.081173 -115.140942 223 2117ft 0kts
13-Jun-19 10:00 36.081173 -115.140943 223 2117ft 0kts
13-Jun-19 10:01 36.080055 -115.141626 181 2117ft 10kts
13-Jun-19 10:02 36.079634 -115.141630 180 2117ft 0kts
13-Jun-19 10:03 36.078634 -115.141686 186 2117ft 11kts
13-Jun-19 10:04 36.078437 -115.146071 274 2117ft 19kts
13-Jun-19 10:05 36.078819 -115.151859 265 2117ft 11kts
13-Jun-19 10:06 36.082062 -115.155276 334 2117ft 21kts
13-Jun-19 10:07 36.088121 -115.157330 24 2117ft 19kts
13-Jun-19 10:08 36.093462 -115.154245 24 2117ft 23kts
13-Jun-19 10:09 36.097930 -115.152420 303 2117ft 0kts
13-Jun-19 10:10 36.097930 -115.152420 303 2117ft 0kts
13-Jun-19 10:12 36.096752 -115.154606 204 2117ft 39kts
13-Jun-19 10:13 36.069655 -115.169973 207 2923ft 155kts
13-Jun-19 10:14 36.026929 -115.194722 206 5220ft 186kts
13-Jun-19 10:15 35.994029 -115.249843 240 8016ft 221kts
13-Jun-19 10:16 35.958098 -115.317512 225 10970ft 246kts
13-Jun-19 10:17 35.909175 -115.376997 224 14019ft 255kts
13-Jun-19 10:18 35.886829 -115.454590 269 17200ft 248kts
13-Jun-19 10:19 35.888540 -115.541372 269 20350ft 269kts
13-Jun-19 10:20 35.890401 -115.642145 270 23320ft 318kts
13-Jun-19 10:21 35.892613 -115.761171 270 26113ft 371kts
13-Jun-19 10:22 35.894848 -115.895467 270 28854ft 393kts
13-Jun-19 10:23 35.935827 -116.015406 312 31669ft 401kts
13-Jun-19 10:24 36.016672 -116.109708 314 34343ft 401kts
13-Jun-19 10:25 36.100564 -116.206578 314 36072ft 444kts
13-Jun-19 10:26 36.195893 -116.316721 314 35975ft 474kts
13-Jun-19 10:27 36.292591 -116.429020 314 35950ft 474kts
13-Jun-19 10:27 36.373127 -116.522855 314 35949ft 475kts
13-Jun-19 10:29 36.484988 -116.653654 314 35949ft 475kts
13-Jun-19 10:30 36.584673 -116.762528 324 35986ft 479kts
13-Jun-19 10:30 36.679868 -116.835448 325 35946ft 481kts
13-Jun-19 10:32 36.813701 -116.937325 325 35944ft 481kts
13-Jun-19 10:33 36.928391 -117.024994 325 36057ft 478kts
13-Jun-19 10:33 37.023573 -117.097990 324 36108ft 478kts
13-Jun-19 10:35 37.157041 -117.200731 325 36108ft 482kts
13-Jun-19 10:36 37.270529 -117.291546 314 36042ft 478kts
13-Jun-19 10:36 37.308250 -117.412081 268 35259ft 440kts
13-Jun-19 10:37 37.318292 -117.565030 274 34196ft 433kts
13-Jun-19 10:39 37.331787 -117.742067 273 32944ft 430kts
13-Jun-19 10:39 37.341178 -117.867329 273 32076ft 430kts
13-Jun-19 10:40 37.352342 -118.018240 273 30934ft 428kts
13-Jun-19 10:41 37.363058 -118.166699 272 29462ft 416kts
13-Jun-19 10:42 37.373169 -118.308544 272 27871ft 398kts
13-Jun-19 10:43 37.360529 -118.443805 252 25933ft 387kts
13-Jun-19 10:44 37.332144 -118.574690 252 24060ft 385kts
13-Jun-19 10:45 37.303880 -118.704097 252 22034ft 385kts
13-Jun-19 10:46 37.275436 -118.833595 252 20296ft 374kts
13-Jun-19 10:47 37.249131 -118.952486 252 20234ft 339kts
13-Jun-19 10:48 37.223827 -119.066282 252 20245ft 336kts
13-Jun-19 10:49 37.198402 -119.180265 252 20169ft 337kts
13-Jun-19 10:50 37.172796 -119.294734 252 20040ft 339kts
13-Jun-19 10:51 37.145606 -119.414310 253 18291ft 360kts
13-Jun-19 10:52 37.118124 -119.536068 253 16438ft 362kts
13-Jun-19 10:53 37.068154 -119.634650 197 14332ft 331kts
13-Jun-19 10:54 36.986253 -119.601864 153 12048ft 308kts
13-Jun-19 10:55 36.912427 -119.552327 153 9943ft 287kts
13-Jun-19 10:56 36.849708 -119.498204 143 8220ft 251kts
13-Jun-19 10:57 36.796414 -119.446389 143 6007ft 241kts
13-Jun-19 10:58 36.740461 -119.409952 202 4881ft 226kts
13-Jun-19 10:59 36.705275 -119.468169 253 4014ft 216kts
13-Jun-19 11:00 36.690565 -119.537289 265 3501ft 195kts
13-Jun-19 11:01 36.708356 -119.594535 306 2990ft 193kts
13-Jun-19 11:02 36.736394 -119.646628 306 1722ft 162kts
13-Jun-19 11:03 36.761189 -119.690135 303 633ft 143kts
13-Jun-19 11:04 36.776439 -119.717625 255 334ft 9kts
13-Jun-19 11:05 36.775794 -119.720802 178 334ft 15kts
13-Jun-19 11:06 36.772436 -119.719375 203 334ft 8kts

Navigation Log

Ident Type
Flight plan parsing failed, navigation log unavailable